createdAt,value
2019-05-30T00:01:48.211Z,47.23
2019-05-30T00:04:31.130Z,46.90
2019-05-30T00:07:21.524Z,46.74
2019-05-30T00:10:05.214Z,46.87
2019-05-30T00:12:58.567Z,46.69
2019-05-30T00:16:02.907Z,46.80
2019-05-30T00:18:46.227Z,46.07
2019-05-30T00:21:36.624Z,46.13
2019-05-30T00:24:19.882Z,46.63
2019-05-30T00:27:10.326Z,46.40
2019-05-30T00:29:53.627Z,46.15
2019-05-30T00:32:44.023Z,46.55
2019-05-30T00:35:26.997Z,46.62
2019-05-30T00:38:17.415Z,46.45
2019-05-30T00:41:00.582Z,46.82
2019-05-30T00:43:50.979Z,46.88
2019-05-30T00:46:33.741Z,46.70
2019-05-30T00:49:24.171Z,46.86
2019-05-30T00:52:27.108Z,47.27
2019-05-30T00:55:17.500Z,47.29
2019-05-30T00:58:01.026Z,47.28
2019-05-30T01:00:51.478Z,47.64
2019-05-30T01:03:34.841Z,47.59
2019-05-30T01:06:38.026Z,47.30
2019-05-30T01:09:29.928Z,47.46
2019-05-30T01:12:20.348Z,47.98
2019-05-30T01:18:40.159Z,48.13
2019-05-30T01:21:22.972Z,48.27
2019-05-30T01:24:13.364Z,48.54
2019-05-30T01:26:57.159Z,49.04
2019-05-30T01:29:47.559Z,49.26
2019-05-30T01:32:31.080Z,49.00
2019-05-30T01:35:21.525Z,49.67
2019-05-30T01:38:06.063Z,49.99
2019-05-30T01:40:57.647Z,50.41
2019-05-30T01:44:01.846Z,50.64
2019-05-30T01:46:52.340Z,50.63
2019-05-30T01:49:35.004Z,50.83
2019-05-30T01:52:25.412Z,50.97
2019-05-30T01:55:09.050Z,51.29
2019-05-30T01:58:01.570Z,51.60
2019-05-30T02:01:18.961Z,51.72
2019-05-30T02:03:56.060Z,52.13
2019-05-30T02:06:39.235Z,52.32
2019-05-30T02:09:29.653Z,52.77
2019-05-30T02:12:13.240Z,53.21
2019-05-30T02:15:03.691Z,53.36
2019-05-30T02:17:47.315Z,53.52
2019-05-30T02:20:37.709Z,53.52
2019-05-30T02:23:20.357Z,53.81
2019-05-30T02:26:10.813Z,54.25
2019-05-30T02:28:53.583Z,54.43
2019-05-30T02:31:39.330Z,54.73
2019-05-30T02:34:28.751Z,54.79
2019-05-30T02:37:12.887Z,54.82
2019-05-30T02:40:07.078Z,54.87
2019-05-30T02:43:09.800Z,54.95
2019-05-30T02:46:00.936Z,55.29
2019-05-30T02:49:06.587Z,55.25
2019-05-30T02:51:49.594Z,55.40
2019-05-30T02:54:39.956Z,55.63
2019-05-30T02:57:23.408Z,55.67
2019-05-30T03:00:17.684Z,55.87
2019-05-30T03:03:18.878Z,56.00
2019-05-30T03:06:11.178Z,56.09
2019-05-30T03:09:13.895Z,56.21
2019-05-30T03:12:06.377Z,56.40
2019-05-30T03:15:12.338Z,56.69
2019-05-30T03:18:02.394Z,56.66
2019-05-30T03:21:08.587Z,56.71
2019-05-30T03:23:51.112Z,56.82
2019-05-30T03:26:41.615Z,56.71
2019-05-30T03:29:24.624Z,56.88
2019-05-30T03:35:19.004Z,57.05
2019-05-30T03:38:00.747Z,57.05
2019-05-30T03:40:51.345Z,56.85
2019-05-30T03:43:54.118Z,56.77
2019-05-30T03:47:06.315Z,57.17
2019-05-30T03:50:12.423Z,57.23
2019-05-30T03:53:04.584Z,57.66
2019-05-30T03:56:11.589Z,57.09
2019-05-30T03:59:39.882Z,57.10
2019-05-30T04:02:27.878Z,57.24
2019-05-30T04:05:59.489Z,57.46
2019-05-30T04:08:43.586Z,57.66
2019-05-30T04:12:14.976Z,58.23
2019-05-30T04:15:38.194Z,58.26
2019-05-30T04:18:20.925Z,58.92
2019-05-30T04:21:13.342Z,59.07
2019-05-30T04:24:16.388Z,58.76
2019-05-30T04:27:25.798Z,59.56
2019-05-30T04:30:09.857Z,59.59
2019-05-30T04:33:17.188Z,59.39
2019-05-30T04:36:03.664Z,59.53
2019-05-30T04:38:54.083Z,59.84
2019-05-30T04:41:36.625Z,60.20
2019-05-30T04:47:29.071Z,59.55
2019-05-30T04:50:20.685Z,59.70
2019-05-30T04:53:24.532Z,59.72
2019-05-30T04:56:16.861Z,59.61
2019-05-30T04:59:20.335Z,59.46
2019-05-30T05:02:13.543Z,59.74
2019-05-30T05:05:22.590Z,59.79
2019-05-30T05:08:09.061Z,59.52
2019-05-30T05:10:51.909Z,59.40
2019-05-30T05:13:42.308Z,59.54
2019-05-30T05:16:34.808Z,59.66
2019-05-30T05:19:17.400Z,59.19
2019-05-30T05:22:27.731Z,59.14
2019-05-30T05:25:10.472Z,59.31
2019-05-30T05:28:00.867Z,58.98
2019-05-30T05:30:44.112Z,59.24
2019-05-30T05:33:34.497Z,59.14
2019-05-30T05:36:17.477Z,58.90
2019-05-30T05:42:16.184Z,58.81
2019-05-30T05:45:06.021Z,58.79
2019-05-30T05:48:08.543Z,58.63
2019-05-30T05:50:59.041Z,58.98
2019-05-30T05:53:41.819Z,58.30
2019-05-30T05:56:32.230Z,58.34
2019-05-30T05:59:16.878Z,58.01
2019-05-30T06:02:07.425Z,57.71
2019-05-30T06:04:50.544Z,57.62
2019-05-30T06:08:21.812Z,57.56
2019-05-30T06:11:04.893Z,57.20
2019-05-30T06:13:55.314Z,57.05
2019-05-30T06:16:38.118Z,57.05
2019-05-30T06:19:45.359Z,56.84
2019-05-30T06:22:33.864Z,56.83
2019-05-30T06:25:27.194Z,56.96
2019-05-30T06:28:28.647Z,57.03
2019-05-30T06:31:20.239Z,57.52
2019-05-30T06:34:34.831Z,57.59
2019-05-30T06:37:15.766Z,58.57
2019-05-30T06:39:58.602Z,58.40
2019-05-30T06:42:48.978Z,58.63
2019-05-30T06:45:31.957Z,58.75
2019-05-30T06:48:22.640Z,58.91
2019-05-30T06:51:27.046Z,58.63
2019-05-30T06:54:17.452Z,58.87
2019-05-30T06:57:00.254Z,59.12
2019-05-30T06:59:54.245Z,58.48
2019-05-30T07:02:37.615Z,58.66
2019-05-30T07:05:29.939Z,58.87
2019-05-30T07:08:33.051Z,59.00
2019-05-30T07:11:24.669Z,59.21
2019-05-30T07:14:27.762Z,59.34
2019-05-30T07:17:18.958Z,58.56
2019-05-30T07:20:06.070Z,59.14
2019-05-30T07:22:56.596Z,59.15
2019-05-30T07:25:39.989Z,59.63
2019-05-30T07:28:30.423Z,59.75
2019-05-30T07:31:13.334Z,60.35
2019-05-30T07:34:03.832Z,60.99
2019-05-30T07:37:06.443Z,61.40
2019-05-30T07:39:56.850Z,61.61
2019-05-30T07:42:39.858Z,61.86
2019-05-30T07:45:31.061Z,62.52
2019-05-30T07:48:34.616Z,63.14
2019-05-30T07:51:26.290Z,62.97
2019-05-30T07:54:31.000Z,63.16
2019-05-30T07:57:21.457Z,63.61
2019-05-30T08:00:04.897Z,64.56
2019-05-30T08:02:55.309Z,65.03
2019-05-30T08:05:45.722Z,65.39
2019-05-30T08:08:36.241Z,65.91
2019-05-30T08:11:19.439Z,66.69
2019-05-30T08:14:09.916Z,67.08
2019-05-30T08:16:53.025Z,66.70
2019-05-30T08:19:36.156Z,67.05
2019-05-30T08:22:27.877Z,66.94
2019-05-30T08:25:32.144Z,67.12
2019-05-30T08:31:32.683Z,66.90
2019-05-30T08:34:23.141Z,67.08
2019-05-30T08:37:25.775Z,66.76
2019-05-30T08:43:09.918Z,65.53
2019-05-30T08:46:00.316Z,65.83
2019-05-30T08:48:43.727Z,65.90
2019-05-30T08:51:34.220Z,65.84
2019-05-30T08:54:17.362Z,65.87
2019-05-30T08:57:07.787Z,64.36
2019-05-30T08:59:50.964Z,63.82
2019-05-30T09:02:41.310Z,63.82
2019-05-30T09:05:24.534Z,62.33
2019-05-30T09:08:14.972Z,61.44
2019-05-30T09:10:58.209Z,61.65
2019-05-30T09:13:48.605Z,61.44
2019-05-30T09:16:31.344Z,61.89
2019-05-30T09:19:21.725Z,62.50
2019-05-30T09:22:04.753Z,62.98
2019-05-30T09:24:55.136Z,62.43
2019-05-30T09:27:39.409Z,63.19
2019-05-30T09:30:30.700Z,64.12
2019-05-30T09:33:14.142Z,64.35
2019-05-30T09:36:13.379Z,64.13
2019-05-30T09:39:08.970Z,63.66
2019-05-30T09:41:59.390Z,63.16
2019-05-30T09:44:47.962Z,63.23
2019-05-30T09:47:36.628Z,63.18
2019-05-30T09:50:40.961Z,63.48
2019-05-30T09:53:31.580Z,62.82
2019-05-30T09:56:14.970Z,62.16
2019-05-30T09:59:05.392Z,62.16
2019-05-30T10:01:48.522Z,61.83
2019-05-30T10:04:38.946Z,61.76
2019-05-30T10:07:22.093Z,61.89
2019-05-30T10:10:12.874Z,61.47
2019-05-30T10:12:56.554Z,61.80
2019-05-30T10:15:40.127Z,62.81
2019-05-30T10:18:30.562Z,62.99
2019-05-30T10:21:13.162Z,63.28
2019-05-30T10:24:03.563Z,62.90
2019-05-30T10:26:47.225Z,63.79
2019-05-30T10:29:37.669Z,63.73
2019-05-30T10:32:20.348Z,63.54
2019-05-30T10:38:04.057Z,62.99
2019-05-30T10:40:54.475Z,63.41
2019-05-30T10:43:45.976Z,63.34
2019-05-30T10:46:50.791Z,66.87
2019-05-30T10:49:41.450Z,68.18
2019-05-30T10:52:24.157Z,69.33
2019-05-30T10:58:43.028Z,70.23
2019-05-30T11:01:53.063Z,70.38
2019-05-30T11:04:57.655Z,70.42
2019-05-30T11:08:10.850Z,70.56
2019-05-30T11:10:54.763Z,70.56
2019-05-30T11:13:45.295Z,71.00
2019-05-30T11:16:28.731Z,70.83
2019-05-30T11:19:12.165Z,71.04
2019-05-30T11:22:02.536Z,71.95
2019-05-30T11:24:45.194Z,72.06
2019-05-30T11:27:35.693Z,72.03
2019-05-30T11:30:18.838Z,71.95
2019-05-30T11:33:09.264Z,71.57
2019-05-30T11:35:55.137Z,71.46
2019-05-30T11:38:45.602Z,70.98
2019-05-30T11:41:28.938Z,70.21
2019-05-30T11:44:19.344Z,69.83
2019-05-30T11:47:02.812Z,70.49
2019-05-30T11:49:53.624Z,70.10
2019-05-30T11:53:01.852Z,70.48
2019-05-30T11:56:04.409Z,70.26
2019-05-30T11:58:55.926Z,70.04
2019-05-30T12:01:59.074Z,69.07
2019-05-30T12:04:50.495Z,68.49
2019-05-30T12:07:54.827Z,67.50
2019-05-30T12:10:45.355Z,67.33
2019-05-30T12:13:28.838Z,66.65
2019-05-30T12:16:19.254Z,66.24
2019-05-30T12:19:02.387Z,65.89
2019-05-30T12:21:53.548Z,65.25
2019-05-30T12:24:57.777Z,66.07
2019-05-30T12:27:48.549Z,66.39
2019-05-30T12:30:31.927Z,67.10
2019-05-30T12:33:22.371Z,67.71
2019-05-30T12:36:05.581Z,67.50
2019-05-30T12:42:06.705Z,68.33
2019-05-30T12:44:57.068Z,68.55
2019-05-30T12:47:39.753Z,68.96
2019-05-30T12:50:29.528Z,68.30
2019-05-30T12:53:12.521Z,68.29
2019-05-30T12:56:02.919Z,68.01
2019-05-30T12:58:46.004Z,67.82
2019-05-30T13:01:36.466Z,67.76
2019-05-30T13:04:20.084Z,68.06
2019-05-30T13:07:10.500Z,67.90
2019-05-30T13:09:54.972Z,67.76
2019-05-30T13:13:19.002Z,67.77
2019-05-30T13:16:09.194Z,68.43
2019-05-30T13:18:52.184Z,68.43
2019-05-30T13:21:42.648Z,68.32
2019-05-30T13:24:25.667Z,68.31
2019-05-30T13:27:16.128Z,68.20
2019-05-30T13:29:59.972Z,68.23
2019-05-30T13:32:50.416Z,68.38
2019-05-30T13:35:32.910Z,68.24
2019-05-30T13:38:26.324Z,68.93
2019-05-30T13:41:28.212Z,69.51
2019-05-30T13:44:18.595Z,69.42
2019-05-30T13:47:02.536Z,69.69
2019-05-30T13:49:52.961Z,69.90
2019-05-30T13:52:36.427Z,69.71
2019-05-30T13:55:28.287Z,70.16
2019-05-30T13:58:31.916Z,70.58
2019-05-30T14:01:22.375Z,71.08
2019-05-30T14:04:06.295Z,71.91
2019-05-30T14:06:56.792Z,72.66
2019-05-30T14:09:39.795Z,72.90
2019-05-30T14:12:30.314Z,73.08
2019-05-30T14:15:14.469Z,72.99
2019-05-30T14:18:05.144Z,73.56
2019-05-30T14:20:48.771Z,74.59
2019-05-30T14:23:39.150Z,74.97
2019-05-30T14:26:21.913Z,75.35
2019-05-30T14:29:12.327Z,75.37
2019-05-30T14:32:03.799Z,75.21
2019-05-30T14:35:08.344Z,75.33
2019-05-30T14:37:58.955Z,74.95
2019-05-30T14:40:42.485Z,74.89
2019-05-30T14:43:32.891Z,74.19
2019-05-30T14:46:16.671Z,73.42
2019-05-30T14:49:08.533Z,71.45
2019-05-30T14:52:12.126Z,71.38
2019-05-30T14:55:05.106Z,70.35
2019-05-30T14:58:09.144Z,69.02
2019-05-30T15:00:59.636Z,68.65
2019-05-30T15:03:43.006Z,68.15
2019-05-30T15:06:33.390Z,67.17
2019-05-30T15:09:25.508Z,66.92
2019-05-30T15:12:08.965Z,65.97
2019-05-30T15:14:52.228Z,65.37
2019-05-30T15:17:42.657Z,65.54
2019-05-30T15:20:25.933Z,65.85
2019-05-30T15:23:16.349Z,66.20
2019-05-30T15:25:59.641Z,66.56
2019-05-30T15:28:50.071Z,65.97
2019-05-30T15:31:33.413Z,66.38
2019-05-30T15:34:23.835Z,66.56
2019-05-30T15:37:06.709Z,66.23
2019-05-30T15:39:57.085Z,66.01
2019-05-30T15:42:47.534Z,66.19
2019-05-30T15:45:30.365Z,65.53
2019-05-30T15:48:20.749Z,65.52
2019-05-30T15:51:03.863Z,64.30
2019-05-30T15:53:54.245Z,63.88
2019-05-30T15:56:37.202Z,63.50
2019-05-30T15:59:27.649Z,62.96
2019-05-30T16:02:11.907Z,62.69
2019-05-30T16:05:02.472Z,63.19
2019-05-30T16:07:45.139Z,62.85
2019-05-30T16:10:36.895Z,64.02
2019-05-30T16:13:40.106Z,63.63
2019-05-30T16:16:39.422Z,63.62
2019-05-30T16:19:35.037Z,63.50
2019-05-30T16:22:25.480Z,63.59
2019-05-30T16:25:08.489Z,63.09
2019-05-30T16:27:58.906Z,62.50
2019-05-30T16:30:42.297Z,63.20
2019-05-30T16:33:32.702Z,62.75
2019-05-30T16:36:16.090Z,62.72
2019-05-30T16:40:04.077Z,62.61
2019-05-30T16:42:51.346Z,62.32
2019-05-30T16:45:41.753Z,62.91
2019-05-30T16:48:25.028Z,63.13
2019-05-30T16:51:16.583Z,63.83
2019-05-30T16:54:19.683Z,64.42
2019-05-30T16:57:10.090Z,64.14
2019-05-30T16:59:52.883Z,64.59
2019-05-30T17:02:43.355Z,64.81
2019-05-30T17:05:26.587Z,65.44
2019-05-30T17:08:18.071Z,65.30
2019-05-30T17:11:22.114Z,65.87
2019-05-30T17:14:12.575Z,65.87
2019-05-30T17:16:55.234Z,66.23
2019-05-30T17:19:45.719Z,65.53
2019-05-30T17:22:36.183Z,66.30
2019-05-30T17:25:19.315Z,66.26
2019-05-30T17:28:09.692Z,67.04
2019-05-30T17:30:52.747Z,67.31
2019-05-30T17:33:43.141Z,67.54
2019-05-30T17:36:26.267Z,68.21
2019-05-30T17:39:16.721Z,68.32
2019-05-30T17:41:59.823Z,68.96
2019-05-30T17:44:50.302Z,68.65
2019-05-30T17:47:33.117Z,67.86
2019-05-30T17:50:23.850Z,67.93
2019-05-30T17:53:07.112Z,67.68
2019-05-30T17:55:59.392Z,68.08
2019-05-30T17:59:02.469Z,68.53
2019-05-30T18:01:52.938Z,68.56
2019-05-30T18:04:36.127Z,68.68
2019-05-30T18:07:26.950Z,68.22
2019-05-30T18:10:31.816Z,68.49
2019-05-30T18:13:23.053Z,68.67
2019-05-30T18:16:27.142Z,68.06
2019-05-30T18:19:09.971Z,68.06
2019-05-30T18:21:53.147Z,68.16
2019-05-30T18:24:43.712Z,68.44
2019-05-30T18:27:26.362Z,68.51
2019-05-30T18:30:28.361Z,68.06
2019-05-30T18:33:18.855Z,67.81
2019-05-30T18:36:02.350Z,67.71
2019-05-30T18:38:52.755Z,67.96
2019-05-30T18:41:35.543Z,67.78
2019-05-30T18:44:28.844Z,68.07
2019-05-30T18:47:31.234Z,68.27
2019-05-30T18:50:23.083Z,67.89
2019-05-30T18:53:28.830Z,67.80
2019-05-30T18:56:19.293Z,68.16
2019-05-30T18:59:02.064Z,67.63
2019-05-30T19:01:52.540Z,67.70
2019-05-30T19:04:36.037Z,68.11
2019-05-30T19:07:26.768Z,68.06
2019-05-30T19:10:10.203Z,68.25
2019-05-30T19:13:00.603Z,68.26
2019-05-30T19:15:43.894Z,68.27
2019-05-30T19:18:39.657Z,68.27
2019-05-30T19:21:23.910Z,68.29
2019-05-30T19:24:14.301Z,68.05
2019-05-30T19:26:57.858Z,67.72
2019-05-30T19:29:48.373Z,67.80
2019-05-30T19:32:31.095Z,67.93
2019-05-30T19:35:21.521Z,68.22
2019-05-30T19:38:11.956Z,68.41
2019-05-30T19:40:54.799Z,68.34
2019-05-30T19:43:45.193Z,67.96
2019-05-30T19:46:28.612Z,68.51
2019-05-30T19:49:19.028Z,68.24
2019-05-30T19:52:02.492Z,68.63
2019-05-30T19:54:52.948Z,68.61
2019-05-30T19:57:35.771Z,69.12
2019-05-30T20:00:26.196Z,69.25
2019-05-30T20:03:09.640Z,69.19
2019-05-30T20:06:00.079Z,69.61
2019-05-30T20:08:54.509Z,70.06
2019-05-30T20:11:37.182Z,70.11
2019-05-30T20:14:41.305Z,69.91
2019-05-30T20:17:31.586Z,70.39
2019-05-30T20:20:50.374Z,70.66
2019-05-30T20:23:28.222Z,70.61
2019-05-30T20:26:11.557Z,70.72
2019-05-30T20:29:01.995Z,70.64
2019-05-30T20:31:45.778Z,70.09
2019-05-30T20:34:36.720Z,70.47
2019-05-30T20:37:40.906Z,70.06
2019-05-30T20:40:31.351Z,70.29
2019-05-30T20:43:14.200Z,70.06
2019-05-30T20:46:04.609Z,70.10
2019-05-30T20:48:54.991Z,70.64
2019-05-30T20:51:38.691Z,70.53
2019-05-30T20:54:29.982Z,70.56
2019-05-30T20:57:13.276Z,70.91
2019-05-30T21:00:03.970Z,70.69
2019-05-30T21:02:47.551Z,71.26
2019-05-30T21:05:38.153Z,70.74
2019-05-30T21:08:21.037Z,70.64
2019-05-30T21:11:31.886Z,71.27
2019-05-30T21:14:33.558Z,70.72
2019-05-30T21:17:45.907Z,71.13
2019-05-30T21:20:37.786Z,71.09
2019-05-30T21:23:49.902Z,71.56
2019-05-30T21:26:36.691Z,71.77
2019-05-30T21:29:33.443Z,72.29
2019-05-30T21:32:04.770Z,72.18
2019-05-30T21:34:55.151Z,71.85
2019-05-30T21:37:45.858Z,72.05
2019-05-30T21:40:49.855Z,72.43
2019-05-30T21:43:40.420Z,72.50
2019-05-30T21:46:23.520Z,72.03
2019-05-30T21:49:13.986Z,72.54
2019-05-30T21:51:57.251Z,72.78
2019-05-30T21:54:47.896Z,73.05
2019-05-30T21:57:38.289Z,72.90
2019-05-30T22:01:06.742Z,73.33
2019-05-30T22:03:51.000Z,73.82
2019-05-30T22:06:42.764Z,74.35
2019-05-30T22:09:47.330Z,74.57
2019-05-30T22:12:30.810Z,74.77
2019-05-30T22:15:13.797Z,74.48
2019-05-30T22:18:04.224Z,74.13
2019-05-30T22:20:47.992Z,74.44
2019-05-30T22:23:38.495Z,73.58
2019-05-30T22:26:21.001Z,73.48
2019-05-30T22:29:11.400Z,73.68
2019-05-30T22:32:01.795Z,73.57
2019-05-30T22:34:53.019Z,73.82
2019-05-30T22:37:56.613Z,73.53
2019-05-30T22:40:47.874Z,73.21
2019-05-30T22:43:52.917Z,73.25
2019-05-30T22:46:44.045Z,72.95
2019-05-30T22:49:48.696Z,72.49
2019-05-30T22:52:39.145Z,72.48
2019-05-30T22:55:22.653Z,72.96
2019-05-30T22:58:13.030Z,73.07
2019-05-30T23:00:56.556Z,72.91
2019-05-30T23:03:47.213Z,72.34
2019-05-30T23:06:52.348Z,72.43
2019-05-30T23:09:42.801Z,72.84
2019-05-30T23:12:26.183Z,72.40
2019-05-30T23:15:16.591Z,72.17
2019-05-30T23:17:59.601Z,72.30
2019-05-30T23:20:42.522Z,72.75
2019-05-30T23:23:32.911Z,72.61
2019-05-30T23:26:16.151Z,72.95
2019-05-30T23:29:06.554Z,72.74
2019-05-30T23:31:49.902Z,72.76
2019-05-30T23:34:40.395Z,72.83
2019-05-30T23:37:23.344Z,72.56
2019-05-30T23:43:55.198Z,73.16
2019-05-30T23:46:34.395Z,73.40
2019-05-30T23:49:24.808Z,72.95
2019-05-30T23:52:08.070Z,72.89
2019-05-30T23:54:58.451Z,72.79
2019-05-30T23:57:41.269Z,73.13
